Airport View

Enter AWOS ICAO identifier for current METAR.

ex. KFNL

KHSP 212315Z AUTO 00000KT 10SM SCT070 21/16 A3035 RMK AO2

21 Sep 2019 23:36

Frequency: 118.8

Phone: 540-839-5974

Other Area AWOS: KLWB - KROA - KW13 - KSHD

TAF KLWB 211732Z 2118/2218 VRB04KT P6SM VCSH SCT035 BKN050 FM212300 00000KT P6SM SCT050 FM220800 00000KT 1/4SM FG OVC001 FM221400 VRB03KT P6SM SCT025